Time;durP1;ratioP1;P1;durP2;ratioP2;P2;SDS_P1;SDS_P2;PMS_P1;PMS_P2;Temp;Humidity;BMP_temperature;BMP_pressure;BME280_temperature;BME280_humidity;BME280_pressure;Samples;Min_cycle;Max_cycle;Signal;HPM_P1;HPM_P2
2022/01/27 00:00:38;;;;;;;;;;;;;;;21.04;43.48;101817.28;5075510;28;4178;-56
2022/01/27 00:03:20;;;;;;;;;;;;;;;21.04;43.73;101815.16;5078234;28;4196;-56
2022/01/27 00:05:51;;;;;;;;;;;;;;;21.04;43.61;101808.66;5079605;28;4314;-55
2022/01/27 00:08:24;;;;;;;;;;;;;;;21.03;43.97;101804.28;5079151;28;4389;-55
2022/01/27 00:11:00;;;;;;;;;;;;;;;21.06;44.08;101800.13;5073417;28;6367;-55
2022/01/27 00:13:32;;;;;;;;;;;;;;;21.04;43.81;101797.13;5077715;28;4238;-55
2022/01/27 00:16:14;;;;;;;;;;;;;;;21.04;43.87;101794.25;5075140;28;4383;-55
2022/01/27 00:18:40;;;;;;;;;;;;;;;21.03;43.73;101796.38;5077720;28;4218;-56
2022/01/27 00:21:07;;;;;;;;;;;;;;;21.03;43.72;101792.75;5078990;28;4421;-55
2022/01/27 00:23:33;;;;;;;;;;;;;;;21.01;43.67;101784.00;5076909;28;5285;-55
2022/01/27 00:25:59;;;;;;;;;;;;;;;21.01;43.57;101778.25;5076728;28;6352;-53
2022/01/27 00:28:27;;;;;;;;;;;;;;;21.00;43.62;101779.63;5073605;28;4224;-55
2022/01/27 00:30:53;;;;;;;;;;;;;;;21.00;43.72;101776.72;5072362;28;4052;-54
2022/01/27 00:33:19;;;;;;;;;;;;;;;21.00;43.66;101777.47;5076226;28;5317;-55
2022/01/27 00:35:46;;;;;;;;;;;;;;;20.98;43.55;101768.75;5075487;28;4245;-56
2022/01/27 00:38:12;;;;;;;;;;;;;;;21.01;43.69;101769.59;5077020;28;4245;-55
2022/01/27 00:40:39;;;;;;;;;;;;;;;21.01;43.69;101767.47;5078333;28;4164;-55
2022/01/27 00:43:05;;;;;;;;;;;;;;;21.03;43.66;101755.34;5075733;28;5295;-55
2022/01/27 00:45:33;;;;;;;;;;;;;;;21.03;43.66;101752.44;5077481;28;5490;-53
2022/01/27 00:48:03;;;;;;;;;;;;;;;21.00;43.60;101739.28;5076155;28;5285;-55
2022/01/27 00:50:31;;;;;;;;;;;;;;;21.00;43.82;101740.03;5071893;28;5290;-55
2022/01/27 00:53:00;;;;;;;;;;;;;;;21.00;43.67;101734.28;5074254;28;5291;-57
2022/01/27 00:55:28;;;;;;;;;;;;;;;21.00;43.70;101716.25;5075448;28;4201;-56
2022/01/27 00:58:05;;;;;;;;;;;;;;;21.00;43.50;101717.00;5073044;28;5272;-55
2022/01/27 01:00:37;;;;;;;;;;;;;;;20.99;43.62;101709.75;5069475;28;4251;-52
2022/01/27 01:03:09;;;;;;;;;;;;;;;20.99;43.66;101712.63;5075340;28;4205;-55
2022/01/27 01:06:01;;;;;;;;;;;;;;;21.00;43.58;101710.50;5076172;28;4232;-50
2022/01/27 01:11:36;;;;;;;;;;;;;;;21.00;43.72;101693.22;5075055;28;4030;-55
2022/01/27 01:14:26;;;;;;;;;;;;;;;20.99;43.83;101695.38;5074678;28;5306;-53
2022/01/27 01:16:56;;;;;;;;;;;;;;;21.00;43.57;101685.31;5074190;28;4232;-56
2022/01/27 01:19:39;;;;;;;;;;;;;;;20.99;43.53;101686.72;5077797;28;5243;-55
2022/01/27 01:32:52;;;;;;;;;;;;;;;21.00;43.63;101681.72;5070290;28;5276;-55
2022/01/27 01:35:27;;;;;;;;;;;;;;;20.99;43.93;101688.88;5074307;28;4183;-54
2022/01/27 01:37:54;;;;;;;;;;;;;;;21.01;43.66;101683.22;5073771;28;4233;-54
2022/01/27 01:40:20;;;;;;;;;;;;;;;21.00;43.83;101681.72;5077040;28;5212;-52
2022/01/27 01:42:46;;;;;;;;;;;;;;;21.01;43.72;101672.44;5076970;28;5312;-50
2022/01/27 01:45:18;;;;;;;;;;;;;;;21.00;43.71;101675.94;5079231;28;4287;-55
2022/01/27 01:47:44;;;;;;;;;;;;;;;20.96;43.87;101675.72;5078045;28;4137;-53
2022/01/27 01:50:11;;;;;;;;;;;;;;;20.97;43.83;101665.72;5061547;28;6908;-56
2022/01/27 01:52:37;;;;;;;;;;;;;;;20.99;43.77;101674.47;5074645;28;4047;-55
2022/01/27 01:55:04;;;;;;;;;;;;;;;20.97;43.76;101659.94;5081105;28;4268;-54
2022/01/27 01:57:30;;;;;;;;;;;;;;;20.99;43.79;101654.31;5078294;28;4543;-52
2022/01/27 01:59:57;;;;;;;;;;;;;;;20.99;43.68;101646.41;5079692;28;4233;-54
2022/01/27 02:02:23;;;;;;;;;;;;;;;21.00;43.54;101627.00;5075621;28;4172;-55
2022/01/27 02:04:50;;;;;;;;;;;;;;;21.00;43.49;101618.38;5081409;28;4250;-55
2022/01/27 02:07:29;;;;;;;;;;;;;;;20.97;43.75;101622.53;5078793;28;4378;-55
2022/01/27 02:10:14;;;;;;;;;;;;;;;20.98;43.61;101616.13;5059703;28;4184;-54
2022/01/27 02:18:10;;;;;;;;;;;;;;;20.97;43.47;101590.84;5081584;28;4186;-54
2022/01/27 02:20:38;;;;;;;;;;;;;;;20.98;43.54;101587.34;5077036;28;4238;-56
2022/01/27 02:23:08;;;;;;;;;;;;;;;20.97;43.57;101579.34;5083064;28;4167;-55
2022/01/27 02:25:34;;;;;;;;;;;;;;;20.97;43.80;101567.81;5080839;28;5068;-55
2022/01/27 02:28:00;;;;;;;;;;;;;;;20.98;43.64;101563.53;5082068;28;4257;-56
2022/01/27 02:30:27;;;;;;;;;;;;;;;20.97;43.84;101562.81;5078356;28;4171;-54
2022/01/27 02:32:53;;;;;;;;;;;;;;;20.99;43.85;101559.28;5081171;28;4178;-55
2022/01/27 02:35:21;;;;;;;;;;;;;;;20.98;43.67;101560.66;5080719;28;4250;-53
2022/01/27 02:37:47;;;;;;;;;;;;;;;20.97;43.82;101564.94;5075579;28;4236;-55
2022/01/27 02:40:23;;;;;;;;;;;;;;;20.96;43.94;101555.56;5079799;28;5310;-55
2022/01/27 02:42:50;;;;;;;;;;;;;;;20.97;43.61;101553.41;5079235;28;5088;-56
2022/01/27 02:45:26;;;;;;;;;;;;;;;20.97;43.65;101556.28;5080916;28;4250;-53
2022/01/27 02:47:52;;;;;;;;;;;;;;;20.97;43.63;101541.91;5078425;28;4196;-55
2022/01/27 02:50:19;;;;;;;;;;;;;;;20.96;43.64;101543.28;5077099;28;4234;-55
2022/01/27 02:52:45;;;;;;;;;;;;;;;20.95;43.69;101547.53;5077501;28;4417;-55
2022/01/27 02:55:11;;;;;;;;;;;;;;;20.95;43.65;101542.53;5078129;28;4315;-54
2022/01/27 02:57:39;;;;;;;;;;;;;;;20.95;43.54;101541.78;5079698;28;4064;-54
2022/01/27 03:00:05;;;;;;;;;;;;;;;20.96;43.53;101544.03;5078446;28;5398;-57
2022/01/27 03:02:34;;;;;;;;;;;;;;;20.96;43.82;101531.75;5079213;28;4253;-53
2022/01/27 03:05:00;;;;;;;;;;;;;;;20.96;43.77;101526.75;5076081;28;4210;-54
2022/01/27 03:07:27;;;;;;;;;;;;;;;20.96;43.78;101521.00;5081219;28;4265;-55
2022/01/27 03:09:54;;;;;;;;;;;;;;;20.97;43.62;101518.88;5077560;28;4080;-54
2022/01/27 03:12:24;;;;;;;;;;;;;;;20.95;43.94;101515.88;5077594;28;4293;-54
2022/01/27 03:14:50;;;;;;;;;;;;;;;20.95;43.55;101502.22;5081526;28;4432;-54
2022/01/27 03:17:17;;;;;;;;;;;;;;;20.95;43.55;101501.47;5084935;28;4178;-56
2022/01/27 03:19:43;;;;;;;;;;;;;;;20.95;43.79;101495.72;5076698;28;5219;-55
2022/01/27 03:22:10;;;;;;;;;;;;;;;20.93;43.76;101476.19;5079005;28;4257;-55
2022/01/27 03:24:36;;;;;;;;;;;;;;;20.93;43.65;101482.69;5080680;28;4174;-53
2022/01/27 03:27:05;;;;;;;;;;;;;;;20.92;43.60;101475.44;5076964;28;4179;-54
2022/01/27 03:29:31;;;;;;;;;;;;;;;20.94;43.61;101480.59;5078676;28;4242;-55
2022/01/27 03:31:58;;;;;;;;;;;;;;;20.96;43.59;101465.53;5079056;28;4211;-54
2022/01/27 03:34:24;;;;;;;;;;;;;;;20.93;43.68;101459.66;5077739;28;5052;-56
2022/01/27 03:36:50;;;;;;;;;;;;;;;20.95;43.76;101464.06;5079318;28;5498;-56
2022/01/27 03:39:19;;;;;;;;;;;;;;;20.95;43.75;101461.16;5079864;28;4190;-55
2022/01/27 03:41:53;;;;;;;;;;;;;;;20.90;43.67;101449.44;5075003;28;4204;-59
2022/01/27 03:44:20;;;;;;;;;;;;;;;20.94;43.79;101457.56;5078300;28;4242;-54
2022/01/27 03:46:47;;;;;;;;;;;;;;;20.97;43.61;101449.75;5075691;28;4184;-55
2022/01/27 03:49:14;;;;;;;;;;;;;;;20.96;43.76;101448.25;5077840;28;4239;-56
2022/01/27 03:51:40;;;;;;;;;;;;;;;20.99;43.68;101444.13;5078086;28;4060;-54
2022/01/27 03:54:06;;;;;;;;;;;;;;;20.97;43.54;101452.66;5080414;28;5277;-54
2022/01/27 03:56:33;;;;;;;;;;;;;;;20.96;43.91;101443.28;5077322;28;4257;-53
2022/01/27 03:58:59;;;;;;;;;;;;;;;20.97;43.70;101435.38;5076714;28;4381;-54
2022/01/27 04:01:26;;;;;;;;;;;;;;;20.97;43.89;101436.13;5077980;28;4222;-54
2022/01/27 04:03:56;;;;;;;;;;;;;;;20.97;43.73;101439.00;5076359;28;5345;-55
2022/01/27 04:06:31;;;;;;;;;;;;;;;20.97;43.66;101435.38;5077770;28;5311;-54
2022/01/27 04:08:58;;;;;;;;;;;;;;;20.97;43.63;101435.38;5079509;28;4230;-53
2022/01/27 04:11:24;;;;;;;;;;;;;;;20.96;43.63;101439.63;5074922;28;5364;-54
2022/01/27 04:13:51;;;;;;;;;;;;;;;20.95;43.84;101430.25;5075749;28;5299;-55
2022/01/27 04:16:17;;;;;;;;;;;;;;;20.95;43.59;101421.59;5077905;28;4223;-55
2022/01/27 04:18:45;;;;;;;;;;;;;;;20.96;43.50;101420.25;5076363;28;4241;-55
2022/01/27 04:21:12;;;;;;;;;;;;;;;20.97;43.79;101426.72;5080584;28;4146;-55
2022/01/27 04:23:39;;;;;;;;;;;;;;;20.97;43.68;101413.09;5080138;28;5410;-55
2022/01/27 04:26:06;;;;;;;;;;;;;;;20.96;43.52;101422.34;5077133;28;4172;-54
2022/01/27 04:28:36;;;;;;;;;;;;;;;20.93;43.91;101416.47;5078802;28;4245;-55
2022/01/27 04:31:06;;;;;;;;;;;;;;;20.96;43.60;101410.84;5076928;28;4189;-54
2022/01/27 04:33:34;;;;;;;;;;;;;;;20.95;43.52;101400.72;5077930;28;4216;-56
2022/01/27 04:36:06;;;;;;;;;;;;;;;20.95;43.48;101418.00;5077477;28;4529;-55
2022/01/27 04:38:43;;;;;;;;;;;;;;;20.95;43.40;101404.34;5080521;28;4282;-55
2022/01/27 04:44:16;;;;;;;;;;;;;;;20.95;43.45;101410.09;5071805;28;4032;-53
2022/01/27 04:46:57;;;;;;;;;;;;;;;20.95;43.67;101412.97;5077689;28;4916;-56
2022/01/27 04:49:23;;;;;;;;;;;;;;;20.96;43.50;101411.59;5075293;28;4211;-54
2022/01/27 04:51:50;;;;;;;;;;;;;;;20.96;43.38;101402.19;5076807;28;4502;-55
2022/01/27 04:54:32;;;;;;;;;;;;;;;20.96;43.48;101402.97;5076667;28;4438;-56
2022/01/27 04:57:01;;;;;;;;;;;;;;;20.96;43.38;101388.56;5077850;28;4147;-55
2022/01/27 04:59:30;;;;;;;;;;;;;;;20.95;43.38;101369.78;5074825;28;4424;-54
2022/01/27 05:02:02;;;;;;;;;;;;;;;20.94;43.42;101371.19;5075596;28;4212;-53
2022/01/27 05:04:33;;;;;;;;;;;;;;;20.96;43.38;101359.00;5076683;28;4056;-53
2022/01/27 05:06:59;;;;;;;;;;;;;;;20.95;43.26;101363.28;5078704;28;5425;-54
2022/01/27 05:09:26;;;;;;;;;;;;;;;20.96;43.25;101350.38;5078459;28;5265;-53
2022/01/27 05:11:57;;;;;;;;;;;;;;;20.96;43.39;101341.72;5077379;28;4227;-56
2022/01/27 05:14:25;;;;;;;;;;;;;;;20.96;43.34;101325.22;5074737;28;4263;-56
2022/01/27 05:16:54;;;;;;;;;;;;;;;20.96;43.23;101324.47;5077262;28;4253;-56
2022/01/27 05:19:20;;;;;;;;;;;;;;;20.96;43.45;101330.22;5081288;28;5284;-53
2022/01/27 05:21:47;;;;;;;;;;;;;;;20.95;43.42;101302.84;5080926;28;4256;-54
2022/01/27 05:24:19;;;;;;;;;;;;;;;20.93;43.34;101307.06;5082113;28;4241;-55
2022/01/27 05:26:47;;;;;;;;;;;;;;;20.93;43.14;101304.19;5079980;28;4098;-53
2022/01/27 05:29:13;;;;;;;;;;;;;;;20.95;43.21;101299.94;5080932;28;4614;-53
2022/01/27 05:31:39;;;;;;;;;;;;;;;20.95;43.15;101288.44;5081921;28;4228;-54
2022/01/27 05:34:06;;;;;;;;;;;;;;;20.96;43.16;101266.88;5079855;28;5319;-55
2022/01/27 05:36:33;;;;;;;;;;;;;;;20.95;43.27;101271.16;5079602;28;5286;-56
2022/01/27 05:39:00;;;;;;;;;;;;;;;20.98;43.22;101269.88;5083286;28;4339;-54
2022/01/27 05:41:26;;;;;;;;;;;;;;;20.97;43.24;101274.88;5083300;28;4245;-54
2022/01/27 05:43:53;;;;;;;;;;;;;;;20.98;43.31;101275.63;5079185;28;5265;-55
2022/01/27 05:46:19;;;;;;;;;;;;;;;20.97;43.45;101265.50;5077700;28;5325;-55
2022/01/27 05:48:46;;;;;;;;;;;;;;;20.96;43.36;101282.03;5080070;28;4244;-50
2022/01/27 05:51:13;;;;;;;;;;;;;;;20.97;43.21;101291.41;5081248;28;4203;-52
2022/01/27 05:53:39;;;;;;;;;;;;;;;20.96;43.17;101284.16;5081488;28;4184;-55
2022/01/27 05:56:06;;;;;;;;;;;;;;;20.98;43.44;101269.88;5076224;28;5527;-53
2022/01/27 05:58:32;;;;;;;;;;;;;;;20.96;43.17;101278.41;5080809;28;4216;-54
2022/01/27 06:00:59;;;;;;;;;;;;;;;20.97;43.22;101268.38;5078373;28;4353;-54
2022/01/27 06:03:25;;;;;;;;;;;;;;;20.98;43.13;101272.75;5077612;28;4323;-55
2022/01/27 06:05:52;;;;;;;;;;;;;;;20.95;43.30;101265.41;5068714;28;4162;-53
2022/01/27 06:08:18;;;;;;;;;;;;;;;20.96;43.32;101258.25;5079161;28;5386;-55
2022/01/27 06:10:44;;;;;;;;;;;;;;;20.94;43.35;101256.03;5079286;28;4178;-56
2022/01/27 06:13:11;;;;;;;;;;;;;;;20.93;43.21;101246.63;5076825;28;5465;-54
2022/01/27 06:15:37;;;;;;;;;;;;;;;20.93;43.34;101252.38;5078755;28;4074;-56
2022/01/27 06:18:03;;;;;;;;;;;;;;;20.95;43.29;101248.13;5079268;28;5302;-55
2022/01/27 06:20:31;;;;;;;;;;;;;;;20.93;43.09;101252.38;5083777;28;4281;-54
2022/01/27 06:22:58;;;;;;;;;;;;;;;20.95;43.21;101236.63;5081542;28;5242;-53
2022/01/27 06:25:25;;;;;;;;;;;;;;;20.92;43.40;101245.16;5079787;28;4073;-56
2022/01/27 06:27:51;;;;;;;;;;;;;;;20.96;43.31;101238.84;5080279;28;4367;-55
2022/01/27 06:30:17;;;;;;;;;;;;;;;20.97;43.27;101245.34;5078449;28;5249;-53
2022/01/27 06:32:44;;;;;;;;;;;;;;;20.95;43.28;101239.50;5084131;28;5260;-54
2022/01/27 06:35:10;;;;;;;;;;;;;;;20.97;43.29;101236.72;5080942;28;4334;-52
2022/01/27 06:37:36;;;;;;;;;;;;;;;20.96;43.35;101220.81;5081488;28;4245;-55
2022/01/27 06:40:03;;;;;;;;;;;;;;;20.96;43.45;101220.81;5079072;28;5134;-54
2022/01/27 06:42:30;;;;;;;;;;;;;;;21.00;43.28;101223.91;5074005;28;5333;-57
2022/01/27 06:44:56;;;;;;;;;;;;;;;21.05;43.48;101228.47;5078834;28;4218;-57
2022/01/27 06:47:22;;;;;;;;;;;;;;;21.04;43.72;101227.00;5078930;28;4564;-57
2022/01/27 06:49:49;;;;;;;;;;;;;;;21.02;43.53;101224.00;5078846;28;5623;-55
2022/01/27 06:52:15;;;;;;;;;;;;;;;21.00;43.89;101221.75;5078518;28;4231;-55
2022/01/27 06:54:42;;;;;;;;;;;;;;;20.35;42.03;101215.56;5078935;28;4074;-56
2022/01/27 06:57:09;;;;;;;;;;;;;;;20.57;41.68;101227.50;5076537;28;4347;-57
2022/01/27 06:59:35;;;;;;;;;;;;;;;20.67;42.16;101230.91;5079174;28;5222;-57
2022/01/27 07:02:02;;;;;;;;;;;;;;;20.77;42.26;101217.03;5078697;28;4247;-57
2022/01/27 07:04:28;;;;;;;;;;;;;;;20.80;42.53;101224.41;5080149;28;4347;-57
2022/01/27 07:06:54;;;;;;;;;;;;;;;20.83;42.39;101231.00;5079461;28;4183;-56
2022/01/27 07:09:21;;;;;;;;;;;;;;;20.85;42.51;101222.47;5080355;28;4087;-57
2022/01/27 07:11:47;;;;;;;;;;;;;;;20.83;42.48;101214.47;5078468;28;4239;-58
2022/01/27 07:14:14;;;;;;;;;;;;;;;20.84;42.92;101218.81;5083422;28;4268;-56
2022/01/27 07:16:40;;;;;;;;;;;;;;;20.54;41.86;101217.25;5079855;28;4288;-49
2022/01/27 07:19:06;;;;;;;;;;;;;;;18.57;38.51;101217.91;5072668;28;4535;-58
2022/01/27 07:21:33;;;;;;;;;;;;;;;18.91;40.55;101204.13;5059927;28;4314;-64
2022/01/27 07:23:59;;;;;;;;;;;;;;;19.93;40.99;101218.44;5072640;28;5243;-64
2022/01/27 07:26:26;;;;;;;;;;;;;;;20.41;39.62;101215.88;5079978;28;5290;-63
2022/01/27 07:28:52;;;;;;;;;;;;;;;20.65;38.58;101204.91;5075217;28;4205;-62
2022/01/27 07:31:19;;;;;;;;;;;;;;;20.77;40.19;101204.78;5073863;28;5352;-61
2022/01/27 07:33:47;;;;;;;;;;;;;;;20.82;40.29;101213.00;5078610;28;5526;-61
2022/01/27 07:36:16;;;;;;;;;;;;;;;20.90;40.35;101198.97;5077894;28;4164;-58
2022/01/27 07:38:43;;;;;;;;;;;;;;;20.98;41.04;101203.66;5076877;28;4300;-62
2022/01/27 07:41:09;;;;;;;;;;;;;;;21.04;41.10;101187.41;5079166;28;4175;-58
2022/01/27 07:43:36;;;;;;;;;;;;;;;21.10;41.24;101187.00;5076609;28;4257;-57
2022/01/27 07:46:03;;;;;;;;;;;;;;;21.18;41.61;101180.88;5079200;28;5288;-56
2022/01/27 07:48:30;;;;;;;;;;;;;;;21.07;41.65;101176.75;5079623;28;4198;-57
2022/01/27 07:50:56;;;;;;;;;;;;;;;21.01;42.07;101173.59;5074741;28;4308;-62
2022/01/27 07:53:22;;;;;;;;;;;;;;;21.03;42.34;101188.09;5079229;28;4264;-62
2022/01/27 07:55:49;;;;;;;;;;;;;;;21.01;42.56;101182.22;5079588;28;5314;-62
2022/01/27 07:58:15;;;;;;;;;;;;;;;21.02;42.63;101169.31;5077025;28;4087;-62
2022/01/27 08:00:41;;;;;;;;;;;;;;;21.02;42.92;101166.41;5074996;28;4246;-61
2022/01/27 08:03:08;;;;;;;;;;;;;;;21.06;43.26;101167.38;5076577;28;5224;-61
2022/01/27 08:05:34;;;;;;;;;;;;;;;21.17;43.30;101165.72;5077752;28;5229;-60
2022/01/27 08:08:01;;;;;;;;;;;;;;;21.39;43.58;101173.94;5074329;28;4316;-60
2022/01/27 08:10:27;;;;;;;;;;;;;;;21.43;43.66;101157.59;5072543;28;4211;-59
2022/01/27 08:12:53;;;;;;;;;;;;;;;21.45;43.12;101162.72;5075545;28;4212;-55
2022/01/27 08:15:22;;;;;;;;;;;;;;;21.50;43.04;101156.50;5076896;28;4221;-56
2022/01/27 08:17:48;;;;;;;;;;;;;;;21.56;42.93;101153.16;5078191;28;4235;-56
2022/01/27 08:20:15;;;;;;;;;;;;;;;21.68;42.95;101142.19;5081373;28;4150;-50
2022/01/27 08:22:46;;;;;;;;;;;;;;;21.73;42.73;101146.72;5075450;28;4037;-58
2022/01/27 08:25:13;;;;;;;;;;;;;;;21.73;42.96;101149.63;5080242;28;5209;-52
2022/01/27 08:27:46;;;;;;;;;;;;;;;21.72;43.17;101142.38;5082976;28;4215;-52
2022/01/27 08:30:15;;;;;;;;;;;;;;;21.71;42.98;101135.09;5081097;28;5234;-61
2022/01/27 08:32:50;;;;;;;;;;;;;;;21.69;43.08;101131.38;5078050;28;5427;-60
2022/01/27 08:35:17;;;;;;;;;;;;;;;21.67;43.09;101140.72;5081408;28;4432;-61
2022/01/27 08:37:44;;;;;;;;;;;;;;;21.67;43.24;101140.72;5065886;28;4148;-57
2022/01/27 08:40:11;;;;;;;;;;;;;;;21.65;42.85;101131.97;5083253;28;5627;-62
2022/01/27 08:42:58;;;;;;;;;;;;;;;21.71;42.26;101114.94;5080389;28;4544;-54
2022/01/27 08:45:25;;;;;;;;;;;;;;;21.74;41.70;101121.56;5081924;28;4193;-62
2022/01/27 08:47:52;;;;;;;;;;;;;;;21.78;41.64;101115.94;5079369;28;5436;-62
2022/01/27 08:50:20;;;;;;;;;;;;;;;21.74;41.45;101119.41;5079149;28;4219;-59
2022/01/27 08:52:47;;;;;;;;;;;;;;;21.75;41.87;101112.22;5079896;28;4203;-62
2022/01/27 08:55:13;;;;;;;;;;;;;;;21.83;41.98;101111.88;5083614;28;4202;-52
2022/01/27 08:57:40;;;;;;;;;;;;;;;21.88;41.79;101110.66;5082710;28;4232;-50
2022/01/27 09:00:07;;;;;;;;;;;;;;;21.82;41.96;101115.41;5082094;28;5224;-60
2022/01/27 09:02:33;;;;;;;;;;;;;;;21.86;42.30;101115.59;5076812;28;5541;-60
2022/01/27 09:04:59;;;;;;;;;;;;;;;21.85;42.31;101125.63;5083060;28;4197;-61
2022/01/27 09:07:26;;;;;;;;;;;;;;;21.85;42.29;101111.19;5078755;28;4189;-57
2022/01/27 09:09:52;;;;;;;;;;;;;;;21.82;42.45;101098.84;5083139;28;4381;-50
2022/01/27 09:12:18;;;;;;;;;;;;;;;21.84;42.62;101106.84;5079668;28;4374;-53
2022/01/27 09:14:45;;;;;;;;;;;;;;;21.82;42.35;101098.09;5083484;28;4269;-52
2022/01/27 09:17:12;;;;;;;;;;;;;;;21.82;42.53;101089.44;5081525;28;4296;-57
2022/01/27 09:19:45;;;;;;;;;;;;;;;21.81;42.51;101087.97;5082437;28;4226;-51
2022/01/27 09:22:13;;;;;;;;;;;;;;;21.85;42.75;101086.00;5078449;28;4181;-49
2022/01/27 09:24:49;;;;;;;;;;;;;;;21.88;42.78;101098.38;5075509;28;4255;-50
2022/01/27 09:27:16;;;;;;;;;;;;;;;21.86;42.79;101098.28;5081474;28;5476;-58
2022/01/27 09:29:42;;;;;;;;;;;;;;;21.84;42.65;101101.06;5083470;28;4285;-59
2022/01/27 09:32:09;;;;;;;;;;;;;;;21.88;42.57;101089.72;5075595;28;4315;-59
2022/01/27 09:34:35;;;;;;;;;;;;;;;21.89;42.68;101091.19;5079707;28;4248;-56
2022/01/27 09:37:02;;;;;;;;;;;;;;;21.85;42.58;101091.78;5080808;28;5476;-51
2022/01/27 09:39:29;;;;;;;;;;;;;;;21.85;42.82;101085.25;5080450;28;5630;-53
2022/01/27 09:41:55;;;;;;;;;;;;;;;22.03;42.65;101088.94;5077497;28;5323;-51
2022/01/27 09:44:30;;;;;;;;;;;;;;;21.99;42.63;101088.78;5079654;28;4243;-52
2022/01/27 09:47:17;;;;;;;;;;;;;;;21.73;43.05;101086.19;5077278;28;5324;-56
2022/01/27 09:49:51;;;;;;;;;;;;;;;21.69;42.14;101086.03;5077873;28;4301;-55
2022/01/27 09:52:18;;;;;;;;;;;;;;;21.78;42.51;101097.91;5075389;28;4242;-63
2022/01/27 09:54:45;;;;;;;;;;;;;;;21.84;42.50;101089.53;5075707;28;4331;-56
2022/01/27 09:57:15;;;;;;;;;;;;;;;21.79;42.90;101074.22;5054931;28;4353;-59
2022/01/27 09:59:41;;;;;;;;;;;;;;;21.68;43.14;101084.53;5057411;28;4006;-57
2022/01/27 10:02:08;;;;;;;;;;;;;;;21.74;43.55;101072.56;5073929;28;5265;-55
2022/01/27 10:04:48;;;;;;;;;;;;;;;21.80;43.32;101077.81;5076064;28;4083;-55
2022/01/27 10:07:15;;;;;;;;;;;;;;;21.82;43.27;101072.91;5074428;28;4036;-57
2022/01/27 10:09:57;;;;;;;;;;;;;;;21.78;43.10;101063.31;5075152;28;4243;-56
2022/01/27 10:12:24;;;;;;;;;;;;;;;21.73;43.00;101068.91;5070578;28;5322;-58
2022/01/27 10:14:56;;;;;;;;;;;;;;;21.78;43.03;101060.44;5073503;28;4241;-59
2022/01/27 10:17:22;;;;;;;;;;;;;;;21.71;42.80;101060.16;5080006;28;5149;-56
2022/01/27 10:19:52;;;;;;;;;;;;;;;21.73;42.88;101057.38;5080058;28;4230;-52
2022/01/27 10:22:19;;;;;;;;;;;;;;;21.74;42.89;101052.38;5073216;28;5348;-52
2022/01/27 10:24:45;;;;;;;;;;;;;;;21.74;42.98;101055.25;5075173;28;4290;-56
2022/01/27 10:27:16;;;;;;;;;;;;;;;21.79;43.19;101044.66;5081404;28;4099;-52
2022/01/27 10:30:03;;;;;;;;;;;;;;;21.81;43.43;101041.84;5080668;28;4255;-66
2022/01/27 10:32:42;;;;;;;;;;;;;;;21.84;44.34;101047.03;5076135;28;4169;-53
2022/01/27 10:35:09;;;;;;;;;;;;;;;22.05;43.84;101056.56;5076360;28;4080;-49
2022/01/27 10:37:51;;;;;;;;;;;;;;;22.05;43.96;101057.28;5077320;28;4259;-50
2022/01/27 10:40:22;;;;;;;;;;;;;;;22.02;44.14;101043.47;5074681;28;4225;-52
2022/01/27 10:43:04;;;;;;;;;;;;;;;22.02;44.74;101047.09;5076670;28;4249;-52
2022/01/27 10:45:30;;;;;;;;;;;;;;;22.05;44.54;101031.34;5080675;28;4134;-52
2022/01/27 10:48:07;;;;;;;;;;;;;;;22.06;44.80;101017.66;5080553;28;4335;-54
2022/01/27 10:50:48;;;;;;;;;;;;;;;22.09;45.25;101033.66;5077259;28;4266;-50
2022/01/27 10:53:15;;;;;;;;;;;;;;;22.21;45.64;101033.44;5076087;28;4360;-51
2022/01/27 10:55:42;;;;;;;;;;;;;;;22.22;45.71;101034.94;5074980;28;5387;-50
2022/01/27 10:58:24;;;;;;;;;;;;;;;22.23;45.81;101033.53;5074404;28;4107;-52
2022/01/27 11:00:57;;;;;;;;;;;;;;;22.25;46.14;101022.09;5074809;28;4225;-52
2022/01/27 11:03:24;;;;;;;;;;;;;;;22.24;46.62;101026.38;5074097;28;4297;-57
2022/01/27 11:05:51;;;;;;;;;;;;;;;22.25;46.51;101016.31;5078076;28;4258;-55
2022/01/27 11:08:21;;;;;;;;;;;;;;;22.21;46.54;101016.88;5079518;28;4270;-57
2022/01/27 11:10:49;;;;;;;;;;;;;;;22.21;46.48;101013.25;5074988;28;4194;-57
2022/01/27 11:13:16;;;;;;;;;;;;;;;22.05;46.64;101008.28;5077269;28;4468;-55
2022/01/27 11:15:43;;;;;;;;;;;;;;;22.02;46.67;101000.94;5078735;28;4224;-50
2022/01/27 11:18:10;;;;;;;;;;;;;;;22.04;47.01;100985.88;5056552;28;4050;-54
2022/01/27 11:20:51;;;;;;;;;;;;;;;22.05;46.94;100988.09;5069621;28;4137;-52
2022/01/27 11:26:02;;;;;;;;;;;;;;;22.03;45.39;100979.34;5076949;28;4227;-61
2022/01/27 11:28:31;;;;;;;;;;;;;;;22.09;44.98;100970.97;5063882;28;4476;-59
2022/01/27 11:31:16;;;;;;;;;;;;;;;22.15;45.33;100970.44;5056003;28;4085;-61
2022/01/27 11:33:43;;;;;;;;;;;;;;;22.16;45.25;100961.16;5079974;28;4263;-53
2022/01/27 11:36:10;;;;;;;;;;;;;;;22.11;46.04;100962.41;5077628;28;4333;-54
2022/01/27 11:38:37;;;;;;;;;;;;;;;22.06;45.98;100972.28;5080758;28;4254;-52
2022/01/27 11:41:04;;;;;;;;;;;;;;;22.06;46.41;100966.53;5068779;28;4415;-52
2022/01/27 11:43:33;;;;;;;;;;;;;;;21.97;46.63;100958.94;5078992;28;4236;-59
2022/01/27 11:46:13;;;;;;;;;;;;;;;21.85;46.92;100952.66;5077847;28;4177;-56
2022/01/27 11:48:40;;;;;;;;;;;;;;;21.79;47.02;100963.94;5077586;28;6376;-64
2022/01/27 11:51:08;;;;;;;;;;;;;;;21.75;47.40;100956.59;5072626;28;4234;-62
2022/01/27 11:53:36;;;;;;;;;;;;;;;21.72;47.47;100955.03;5079822;28;5444;-60
2022/01/27 11:56:06;;;;;;;;;;;;;;;21.97;47.36;100956.06;5074168;28;5252;-62
2022/01/27 11:58:43;;;;;;;;;;;;;;;21.98;46.25;100954.63;5078347;28;4127;-57
2022/01/27 12:01:10;;;;;;;;;;;;;;;21.88;45.45;100945.59;5070043;28;5262;-55
2022/01/27 12:03:40;;;;;;;;;;;;;;;21.79;44.32;100940.88;5076796;28;4239;-56
2022/01/27 12:06:18;;;;;;;;;;;;;;;21.65;43.62;100935.25;5055498;28;5469;-57
2022/01/27 12:08:44;;;;;;;;;;;;;;;21.56;43.14;100931.28;5079908;28;4215;-56
2022/01/27 12:11:37;;;;;;;;;;;;;;;21.78;43.47;100924.97;5070949;28;5451;-56
2022/01/27 12:14:03;;;;;;;;;;;;;;;21.90;43.76;100922.59;5078527;28;4234;-55
2022/01/27 12:18:57;;;;;;;;;;;;;;;21.99;44.14;100924.41;5084701;28;4199;-55
2022/01/27 12:21:35;;;;;;;;;;;;;;;22.00;44.34;100916.50;5068984;28;6341;-55
2022/01/27 12:24:10;;;;;;;;;;;;;;;21.90;44.31;100908.94;5076282;28;4310;-59
2022/01/27 12:26:50;;;;;;;;;;;;;;;21.92;44.57;100911.13;5074957;28;4354;-58
2022/01/27 12:29:20;;;;;;;;;;;;;;;21.93;44.63;100895.34;5080983;28;4134;-52
2022/01/27 12:31:46;;;;;;;;;;;;;;;22.04;44.41;100900.09;5071912;28;4247;-60
2022/01/27 12:34:13;;;;;;;;;;;;;;;22.08;44.55;100880.09;5078367;28;5463;-63
2022/01/27 12:36:51;;;;;;;;;;;;;;;22.15;44.70;100893.34;5079438;28;4116;-63
2022/01/27 12:39:19;;;;;;;;;;;;;;;22.10;44.67;100880.16;5080845;28;4205;-65
2022/01/27 12:41:47;;;;;;;;;;;;;;;22.11;44.66;100881.66;5074505;28;5468;-61
2022/01/27 12:44:14;;;;;;;;;;;;;;;22.10;44.72;100880.16;5070436;28;4235;-55
2022/01/27 12:46:59;;;;;;;;;;;;;;;22.13;44.89;100873.06;5081561;28;5331;-57
2022/01/27 12:49:39;;;;;;;;;;;;;;;22.16;44.84;100868.84;5077641;28;4191;-53
2022/01/27 12:52:07;;;;;;;;;;;;;;;22.13;44.44;100869.47;5068602;28;4184;-55
2022/01/27 12:54:34;;;;;;;;;;;;;;;22.07;44.63;100864.19;5078320;28;4201;-54
2022/01/27 12:57:00;;;;;;;;;;;;;;;22.07;44.61;100852.63;5078523;28;4175;-54
2022/01/27 12:59:31;;;;;;;;;;;;;;;22.06;44.52;100861.94;5081698;28;4160;-57
2022/01/27 13:01:58;;;;;;;;;;;;;;;22.18;44.34;100863.16;5055295;28;4257;-57
2022/01/27 13:04:25;;;;;;;;;;;;;;;22.22;44.35;100867.63;5078026;28;4090;-61
2022/01/27 13:06:52;;;;;;;;;;;;;;;22.20;44.38;100861.78;5062566;28;5418;-61
2022/01/27 13:09:19;;;;;;;;;;;;;;;22.19;44.35;100852.38;5082635;28;4013;-60
2022/01/27 13:11:47;;;;;;;;;;;;;;;22.18;44.16;100863.16;5073452;28;4231;-60
2022/01/27 13:14:13;;;;;;;;;;;;;;;21.99;44.16;100846.56;5076984;28;4331;-60
2022/01/27 13:16:40;;;;;;;;;;;;;;;21.96;44.20;100842.84;5078226;28;5179;-59
2022/01/27 13:19:18;;;;;;;;;;;;;;;21.87;44.36;100849.69;5076864;28;4180;-61
2022/01/27 13:21:50;;;;;;;;;;;;;;;21.81;44.53;100848.72;5074901;28;5560;-61
2022/01/27 13:24:33;;;;;;;;;;;;;;;21.81;44.37;100848.72;5062376;28;4101;-61